createdAt,value
2023-02-13T00:05:04.814Z,28
2023-02-13T00:15:10.931Z,34
2023-02-13T00:25:15.755Z,34
2023-02-13T00:35:20.949Z,31
2023-02-13T00:45:26.318Z,25
2023-02-13T00:55:30.956Z,24
2023-02-13T01:05:36.805Z,27
2023-02-13T01:15:40.974Z,27
2023-02-13T01:25:48.696Z,25
2023-02-13T01:35:53.765Z,27
2023-02-13T01:45:59.481Z,30
2023-02-13T01:56:06.749Z,29
2023-02-13T02:06:13.285Z,25
2023-02-13T02:16:17.896Z,24
2023-02-13T02:26:24.236Z,23
2023-02-13T02:36:30.304Z,28
2023-02-13T02:46:35.138Z,29
2023-02-13T02:56:40.282Z,30
2023-02-13T03:06:45.796Z,31
2023-02-13T03:16:52.847Z,30
2023-02-13T03:26:58.033Z,29
2023-02-13T03:37:02.838Z,29
2023-02-13T03:47:08.082Z,25
2023-02-13T03:57:14.237Z,27
2023-02-13T04:07:19.683Z,23
2023-02-13T04:17:24.440Z,24
2023-02-13T04:27:30.218Z,25
2023-02-13T04:37:36.281Z,27
2023-02-13T04:47:42.366Z,25
2023-02-13T04:57:47.374Z,31
2023-02-13T05:07:53.202Z,30
2023-02-13T05:17:59.306Z,28
2023-02-13T05:28:04.580Z,24
2023-02-13T05:38:11.503Z,23
2023-02-13T05:48:18.513Z,23
2023-02-13T05:58:21.978Z,28
2023-02-13T06:08:28.880Z,23
2023-02-13T06:18:36.175Z,29
2023-02-13T06:28:42.613Z,25
2023-02-13T06:38:48.347Z,25
2023-02-13T06:48:54.904Z,24
2023-02-13T06:59:00.309Z,24
2023-02-13T07:09:08.156Z,27
2023-02-13T07:19:15.124Z,17
2023-02-13T07:29:20.290Z,25
2023-02-13T07:39:24.660Z,22
2023-02-13T07:49:30.467Z,22
2023-02-13T07:59:39.070Z,19
2023-02-13T08:09:43.588Z,23
2023-02-13T08:19:48.725Z,20
2023-02-13T08:29:56.182Z,20
2023-02-13T08:40:02.401Z,24
2023-02-13T08:50:07.901Z,21
2023-02-13T09:00:12.864Z,20
2023-02-13T09:10:19.748Z,20
2023-02-13T09:20:25.910Z,19
2023-02-13T09:30:34.074Z,17
2023-02-13T09:40:38.319Z,18
2023-02-13T09:50:43.050Z,21
2023-02-13T10:00:48.723Z,21
2023-02-13T10:10:53.618Z,20
2023-02-13T10:20:59.824Z,24
2023-02-13T10:31:06.986Z,22
2023-02-13T10:41:13.715Z,28
2023-02-13T10:51:20.340Z,19
2023-02-13T11:01:25.676Z,19
2023-02-13T11:11:32.412Z,20
2023-02-13T11:21:37.545Z,19
2023-02-13T11:31:45.939Z,19
2023-02-13T11:41:48.826Z,22
2023-02-13T11:51:54.606Z,19
2023-02-13T12:01:59.490Z,21
2023-02-13T12:12:08.062Z,20
2023-02-13T12:22:10.855Z,20
2023-02-13T12:32:17.071Z,24
2023-02-13T12:42:21.909Z,19
2023-02-13T12:52:28.042Z,19
2023-02-13T13:02:36.754Z,16
2023-02-13T13:12:43.417Z,16
2023-02-13T13:22:49.594Z,15
2023-02-13T13:32:55.330Z,15
2023-02-13T13:43:01.139Z,18
2023-02-13T13:53:06.209Z,12
2023-02-13T14:03:11.391Z,14
2023-02-13T14:13:16.293Z,17
2023-02-13T14:23:21.450Z,17
2023-02-13T14:33:27.921Z,15
2023-02-13T14:43:33.867Z,16
2023-02-13T14:53:39.945Z,15
2023-02-13T15:03:44.825Z,18
2023-02-13T15:13:50.353Z,14
2023-02-13T15:23:55.148Z,19
2023-02-13T15:34:02.456Z,18
2023-02-13T15:44:07.530Z,21
2023-02-13T15:54:12.655Z,20
2023-02-13T16:04:18.290Z,16
2023-02-13T16:14:24.501Z,24
2023-02-13T16:24:29.701Z,30
2023-02-13T16:34:35.328Z,23
2023-02-13T16:44:39.799Z,21
2023-02-13T16:54:47.243Z,25
2023-02-13T17:04:52.858Z,28
2023-02-13T17:14:59.423Z,34
2023-02-13T17:25:04.802Z,34
2023-02-13T17:35:09.292Z,36
2023-02-13T17:45:14.666Z,33
2023-02-13T17:55:20.176Z,46
2023-02-13T18:05:26.682Z,38
2023-02-13T18:15:32.946Z,30
2023-02-13T18:25:38.923Z,50
2023-02-13T18:35:43.392Z,42
2023-02-13T18:45:49.740Z,45
2023-02-13T18:55:55.133Z,56
2023-02-13T19:06:02.965Z,46
2023-02-13T19:16:09.753Z,45
2023-02-13T19:26:15.372Z,48
2023-02-13T19:36:20.550Z,51
2023-02-13T19:46:24.864Z,48
2023-02-13T19:56:29.802Z,34
2023-02-13T20:06:35.091Z,37
2023-02-13T20:16:40.446Z,37
2023-02-13T20:26:46.547Z,46
2023-02-13T20:36:53.855Z,48
2023-02-13T20:46:58.400Z,47
2023-02-13T20:57:02.291Z,53
2023-02-13T21:07:07.160Z,42
2023-02-13T21:17:15.309Z,42
2023-02-13T21:27:23.128Z,34
2023-02-13T21:37:28.023Z,89
2023-02-13T21:47:38.164Z,27
2023-02-13T21:57:41.812Z,28
2023-02-13T22:07:46.943Z,40
2023-02-13T22:17:53.142Z,39
2023-02-13T22:27:58.095Z,42
2023-02-13T22:38:02.303Z,38
2023-02-13T22:48:07.414Z,40
2023-02-13T22:58:13.606Z,32
2023-02-13T23:08:18.605Z,33
2023-02-13T23:18:26.318Z,29
2023-02-13T23:28:32.341Z,31
2023-02-13T23:38:39.145Z,30
2023-02-13T23:48:44.880Z,24
2023-02-13T23:58:51.606Z,23
